Airfield :
LOGIN :

Register | Disclaimer

   EN    FR    IT 

 










Legend :    VFR   Marginal VFR   IFR   Intensive IFR   Very Intensive IFR
Visi :
Ceiling :
>= 8 km
>= 3000ft
5 to 8 km
1000 to 3000 ft
1500m to 5 km
500 to 1000 ft
800 to 1500m
200 to 500 ft
< 800m
< 200 ft
Symbols :   Thunderstorms  Fog  Heavy snow  Heavy precipitations  Wind > 20 kt
SIGMETs :     Misc.  Thunderstorms  Icing  Turbulence  Mountain Waves  Volcanic Ashes







- Airport Elevation : 656 ft
- IATA code : CMN


GMMN - Casablanca Mohammed V

CURRENT METAR :
  • 181130Z 02006KT 340V140 CAVOK 21/06 Q1017 NOSIG

EXPIRED METARs :
  • 181100Z 01004KT 340V080 CAVOK 20/07 Q1018 NOSIG
  • 181030Z 02004KT 340V080 CAVOK 17/08 Q1018 NOSIG
  • 181000Z 36003KT CAVOK 15/09 Q1018 NOSIG
  • 180930Z 00000KT CAVOK 14/10 Q1018 NOSIG

TAF TAF GMMN
Valid from the 18 at 12:00 until the 19 at 18:00 UTC


181100Z 1812/1918 04010KT CAVOK
PROB40
TEMPO 1900/1908 VRB02KT 2000 BR BKN010
No reported NOTAMs for that airfield.



MET'MAP, your aeronautical weather chart ! - Copyright ORBIFLY December 2007 - Disclaimer

ORBIFLY MET'MAP TEAM :

Programming & Development : Alexandra Zaïnal
Concept & Development : Baudouin d'Aumeries
Co-Development & Prog : Marc-Olivier Méhu
Technical & hardware support : Manuel Goepfert

Contact : metmap@orbifly.com




SOURCES & CREDITS :

   NOAA